Arlington, Colorado
Current Conditions -  °F | °C
As of 8:53 PM on Friday 31 Oct 2014 (Local Time) from KLHX Reporting Station
Clear Clear  
Wind Chill: 54°   Ceiling: Unl
Heat Index: 54°   Visibility: 10mi
Dew Point: 29°   Wind: 12mph
Humidity: 38%   Direction: 140°SE
Pressure: 30.13"   Gusts: NA
Location:  38.34°N, 103.34°W
Report Text: KLHX 010253Z AUTO 14010KT 10SM CLR 12/M02 A3013 RMK AO2 SLP186 T01221017 56003
Loading
Personal Weather Stations






























Interactive Weather Map
Tropical Storm Tracking
New forecast layout! Learn more

10-Day Weather Forecast

Advertisements
Track Severe Weather on mobile